Aviation Digital Data Service (ADDS)

Output produced by METARs form (1829 UTC 18 April 2019)
found at http://www.aviationweather.gov/metar/data/
 
METAR text: LFPG 181800Z 07008KT CAVOK 21/06 Q1020 NOSIG
Conditions at: LFPG (CHARLES DE GAULL, FR) observed 1800 UTC 18 April 2019
Temperature: 21.0°C (70°F)
Dewpoint: 6.0°C (43°F) [RH = 38%]
Pressure (altimeter): 30.12 inches Hg (1020.0 mb)
Winds: from the ENE (70 degrees) at 9 MPH (8 knots; 4.1 m/s)
Visibility: 6 or more miles (10+ km)
Ceiling: ceiling and visibility are OK
Clouds: unknown
Weather: no significant weather observed at this time

METAR text: LFPG 181730Z 08010KT CAVOK 22/06 Q1019 NOSIG
Conditions at: LFPG (CHARLES DE GAULL, FR) observed 1730 UTC 18 April 2019
Temperature: 22.0°C (72°F)
Dewpoint: 6.0°C (43°F) [RH = 35%]
Pressure (altimeter): 30.09 inches Hg (1019.0 mb)
Winds: from the E (80 degrees) at 12 MPH (10 knots; 5.1 m/s)
Visibility: 6 or more miles (10+ km)
Ceiling: ceiling and visibility are OK
Clouds: unknown
Weather: no significant weather observed at this time

METAR text: LFPG 181700Z 08010KT CAVOK 22/06 Q1019 NOSIG
Conditions at: LFPG (CHARLES DE GAULL, FR) observed 1700 UTC 18 April 2019
Temperature: 22.0°C (72°F)
Dewpoint: 6.0°C (43°F) [RH = 35%]
Pressure (altimeter): 30.09 inches Hg (1019.0 mb)
Winds: from the E (80 degrees) at 12 MPH (10 knots; 5.1 m/s)
Visibility: 6 or more miles (10+ km)
Ceiling: ceiling and visibility are OK
Clouds: unknown
Weather: no significant weather observed at this time

METAR text: LFPG 181630Z 09011KT CAVOK 22/05 Q1019 NOSIG
Conditions at: LFPG (CHARLES DE GAULL, FR) observed 1630 UTC 18 April 2019
Temperature: 22.0°C (72°F)
Dewpoint: 5.0°C (41°F) [RH = 33%]
Pressure (altimeter): 30.09 inches Hg (1019.0 mb)
Winds: from the E (90 degrees) at 13 MPH (11 knots; 5.7 m/s)
Visibility: 6 or more miles (10+ km)
Ceiling: ceiling and visibility are OK
Clouds: unknown
Weather: no significant weather observed at this time

METAR text: LFPG 181600Z 09011KT CAVOK 22/06 Q1019 NOSIG
Conditions at: LFPG (CHARLES DE GAULL, FR) observed 1600 UTC 18 April 2019
Temperature: 22.0°C (72°F)
Dewpoint: 6.0°C (43°F) [RH = 35%]
Pressure (altimeter): 30.09 inches Hg (1019.0 mb)
Winds: from the E (90 degrees) at 13 MPH (11 knots; 5.7 m/s)
Visibility: 6 or more miles (10+ km)
Ceiling: ceiling and visibility are OK
Clouds: unknown
Weather: no significant weather observed at this time

METAR text: LFPG 181530Z 09011KT CAVOK 23/06 Q1019 NOSIG
Conditions at: LFPG (CHARLES DE GAULL, FR) observed 1530 UTC 18 April 2019
Temperature: 23.0°C (73°F)
Dewpoint: 6.0°C (43°F) [RH = 33%]
Pressure (altimeter): 30.09 inches Hg (1019.0 mb)
Winds: from the E (90 degrees) at 13 MPH (11 knots; 5.7 m/s)
Visibility: 6 or more miles (10+ km)
Ceiling: ceiling and visibility are OK
Clouds: unknown
Weather: no significant weather observed at this time

METAR text: LFPG 181500Z 11011KT 060V150 CAVOK 23/05 Q1019 NOSIG
Conditions at: LFPG (CHARLES DE GAULL, FR) observed 1500 UTC 18 April 2019
Temperature: 23.0°C (73°F)
Dewpoint: 5.0°C (41°F) [RH = 31%]
Pressure (altimeter): 30.09 inches Hg (1019.0 mb)
Winds: from the ESE (110 degrees) at 13 MPH (11 knots; 5.7 m/s)
Visibility: 6 or more miles (10+ km)
Ceiling: ceiling and visibility are OK
Clouds: unknown
Weather: no significant weather observed at this time

METAR text: LFPG 181430Z 11013KT CAVOK 23/07 Q1019 NOSIG
Conditions at: LFPG (CHARLES DE GAULL, FR) observed 1430 UTC 18 April 2019
Temperature: 23.0°C (73°F)
Dewpoint: 7.0°C (45°F) [RH = 36%]
Pressure (altimeter): 30.09 inches Hg (1019.0 mb)
Winds: from the ESE (110 degrees) at 15 MPH (13 knots; 6.7 m/s)
Visibility: 6 or more miles (10+ km)
Ceiling: ceiling and visibility are OK
Clouds: unknown
Weather: no significant weather observed at this time

METAR text: LFPG 181400Z 07012KT 050V120 CAVOK 23/06 Q1019 NOSIG
Conditions at: LFPG (CHARLES DE GAULL, FR) observed 1400 UTC 18 April 2019
Temperature: 23.0°C (73°F)
Dewpoint: 6.0°C (43°F) [RH = 33%]
Pressure (altimeter): 30.09 inches Hg (1019.0 mb)
Winds: from the ENE (70 degrees) at 14 MPH (12 knots; 6.2 m/s)
Visibility: 6 or more miles (10+ km)
Ceiling: ceiling and visibility are OK
Clouds: unknown
Weather: no significant weather observed at this time

METAR text: LFPG 181330Z 10012KT CAVOK 23/07 Q1019 NOSIG
Conditions at: LFPG (CHARLES DE GAULL, FR) observed 1330 UTC 18 April 2019
Temperature: 23.0°C (73°F)
Dewpoint: 7.0°C (45°F) [RH = 36%]
Pressure (altimeter): 30.09 inches Hg (1019.0 mb)
Winds: from the E (100 degrees) at 14 MPH (12 knots; 6.2 m/s)
Visibility: 6 or more miles (10+ km)
Ceiling: ceiling and visibility are OK
Clouds: unknown
Weather: no significant weather observed at this time

METAR text: LFPG 181300Z 12013KT 090V150 CAVOK 23/07 Q1019 NOSIG
Conditions at: LFPG (CHARLES DE GAULL, FR) observed 1300 UTC 18 April 2019
Temperature: 23.0°C (73°F)
Dewpoint: 7.0°C (45°F) [RH = 36%]
Pressure (altimeter): 30.09 inches Hg (1019.0 mb)
Winds: from the ESE (120 degrees) at 15 MPH (13 knots; 6.7 m/s)
Visibility: 6 or more miles (10+ km)
Ceiling: ceiling and visibility are OK
Clouds: unknown
Weather: no significant weather observed at this time

METAR text: LFPG 181230Z 12016KT CAVOK 22/07 Q1019 NOSIG
Conditions at: LFPG (CHARLES DE GAULL, FR) observed 1230 UTC 18 April 2019
Temperature: 22.0°C (72°F)
Dewpoint: 7.0°C (45°F) [RH = 38%]
Pressure (altimeter): 30.09 inches Hg (1019.0 mb)
Winds: from the ESE (120 degrees) at 18 MPH (16 knots; 8.2 m/s)
Visibility: 6 or more miles (10+ km)
Ceiling: ceiling and visibility are OK
Clouds: unknown
Weather: no significant weather observed at this time

METAR text: LFPG 181200Z 11014KT CAVOK 22/07 Q1019 NOSIG
Conditions at: LFPG (CHARLES DE GAULL, FR) observed 1200 UTC 18 April 2019
Temperature: 22.0°C (72°F)
Dewpoint: 7.0°C (45°F) [RH = 38%]
Pressure (altimeter): 30.09 inches Hg (1019.0 mb)
Winds: from the ESE (110 degrees) at 16 MPH (14 knots; 7.2 m/s)
Visibility: 6 or more miles (10+ km)
Ceiling: ceiling and visibility are OK
Clouds: unknown
Weather: no significant weather observed at this time

METAR text: LFPG 181130Z 12015KT CAVOK 22/06 Q1019 NOSIG
Conditions at: LFPG (CHARLES DE GAULL, FR) observed 1130 UTC 18 April 2019
Temperature: 22.0°C (72°F)
Dewpoint: 6.0°C (43°F) [RH = 35%]
Pressure (altimeter): 30.09 inches Hg (1019.0 mb)
Winds: from the ESE (120 degrees) at 17 MPH (15 knots; 7.7 m/s)
Visibility: 6 or more miles (10+ km)
Ceiling: ceiling and visibility are OK
Clouds: unknown
Weather: no significant weather observed at this time

METAR text: LFPG 181100Z 10014KT CAVOK 21/08 Q1019 NOSIG
Conditions at: LFPG (CHARLES DE GAULL, FR) observed 1100 UTC 18 April 2019
Temperature: 21.0°C (70°F)
Dewpoint: 8.0°C (46°F) [RH = 43%]
Pressure (altimeter): 30.09 inches Hg (1019.0 mb)
Winds: from the E (100 degrees) at 16 MPH (14 knots; 7.2 m/s)
Visibility: 6 or more miles (10+ km)
Ceiling: ceiling and visibility are OK
Clouds: unknown
Weather: no significant weather observed at this time

METAR text: LFPG 181030Z 08011KT 050V120 CAVOK 20/09 Q1019 NOSIG
Conditions at: LFPG (CHARLES DE GAULL, FR) observed 1030 UTC 18 April 2019
Temperature: 20.0°C (68°F)
Dewpoint: 9.0°C (48°F) [RH = 49%]
Pressure (altimeter): 30.09 inches Hg (1019.0 mb)
Winds: from the E (80 degrees) at 13 MPH (11 knots; 5.7 m/s)
Visibility: 6 or more miles (10+ km)
Ceiling: ceiling and visibility are OK
Clouds: unknown
Weather: no significant weather observed at this time

METAR text: LFPG 181000Z 08011KT CAVOK 19/09 Q1019 NOSIG
Conditions at: LFPG (CHARLES DE GAULL, FR) observed 1000 UTC 18 April 2019
Temperature: 19.0°C (66°F)
Dewpoint: 9.0°C (48°F) [RH = 52%]
Pressure (altimeter): 30.09 inches Hg (1019.0 mb)
Winds: from the E (80 degrees) at 13 MPH (11 knots; 5.7 m/s)
Visibility: 6 or more miles (10+ km)
Ceiling: ceiling and visibility are OK
Clouds: unknown
Weather: no significant weather observed at this time

METAR text: LFPG 180930Z 08012KT CAVOK 18/10 Q1019 NOSIG
Conditions at: LFPG (CHARLES DE GAULL, FR) observed 0930 UTC 18 April 2019
Temperature: 18.0°C (64°F)
Dewpoint: 10.0°C (50°F) [RH = 59%]
Pressure (altimeter): 30.09 inches Hg (1019.0 mb)
Winds: from the E (80 degrees) at 14 MPH (12 knots; 6.2 m/s)
Visibility: 6 or more miles (10+ km)
Ceiling: ceiling and visibility are OK
Clouds: unknown
Weather: no significant weather observed at this time

METAR text: LFPG 180900Z 08012KT CAVOK 17/10 Q1019 NOSIG
Conditions at: LFPG (CHARLES DE GAULL, FR) observed 0900 UTC 18 April 2019
Temperature: 17.0°C (63°F)
Dewpoint: 10.0°C (50°F) [RH = 63%]
Pressure (altimeter): 30.09 inches Hg (1019.0 mb)
Winds: from the E (80 degrees) at 14 MPH (12 knots; 6.2 m/s)
Visibility: 6 or more miles (10+ km)
Ceiling: ceiling and visibility are OK
Clouds: unknown
Weather: no significant weather observed at this time

METAR text: LFPG 180830Z 07011KT CAVOK 16/09 Q1020 NOSIG
Conditions at: LFPG (CHARLES DE GAULL, FR) observed 0830 UTC 18 April 2019
Temperature: 16.0°C (61°F)
Dewpoint: 9.0°C (48°F) [RH = 63%]
Pressure (altimeter): 30.12 inches Hg (1020.0 mb)
Winds: from the ENE (70 degrees) at 13 MPH (11 knots; 5.7 m/s)
Visibility: 6 or more miles (10+ km)
Ceiling: ceiling and visibility are OK
Clouds: unknown
Weather: no significant weather observed at this time

METAR text: LFPG 180800Z 07009KT CAVOK 15/09 Q1020 NOSIG
Conditions at: LFPG (CHARLES DE GAULL, FR) observed 0800 UTC 18 April 2019
Temperature: 15.0°C (59°F)
Dewpoint: 9.0°C (48°F) [RH = 67%]
Pressure (altimeter): 30.12 inches Hg (1020.0 mb)
Winds: from the ENE (70 degrees) at 10 MPH (9 knots; 4.6 m/s)
Visibility: 6 or more miles (10+ km)
Ceiling: ceiling and visibility are OK
Clouds: unknown
Weather: no significant weather observed at this time

METAR text: LFPG 180730Z 07009KT CAVOK 14/09 Q1019 NOSIG
Conditions at: LFPG (CHARLES DE GAULL, FR) observed 0730 UTC 18 April 2019
Temperature: 14.0°C (57°F)
Dewpoint: 9.0°C (48°F) [RH = 72%]
Pressure (altimeter): 30.09 inches Hg (1019.0 mb)
Winds: from the ENE (70 degrees) at 10 MPH (9 knots; 4.6 m/s)
Visibility: 6 or more miles (10+ km)
Ceiling: ceiling and visibility are OK
Clouds: unknown
Weather: no significant weather observed at this time

METAR text: LFPG 180700Z 07008KT CAVOK 13/08 Q1019 NOSIG
Conditions at: LFPG (CHARLES DE GAULL, FR) observed 0700 UTC 18 April 2019
Temperature: 13.0°C (55°F)
Dewpoint: 8.0°C (46°F) [RH = 72%]
Pressure (altimeter): 30.09 inches Hg (1019.0 mb)
Winds: from the ENE (70 degrees) at 9 MPH (8 knots; 4.1 m/s)
Visibility: 6 or more miles (10+ km)
Ceiling: ceiling and visibility are OK
Clouds: unknown
Weather: no significant weather observed at this time

METAR text: LFPG 180630Z 07006KT CAVOK 12/08 Q1019 NOSIG
Conditions at: LFPG (CHARLES DE GAULL, FR) observed 0630 UTC 18 April 2019
Temperature: 12.0°C (54°F)
Dewpoint: 8.0°C (46°F) [RH = 76%]
Pressure (altimeter): 30.09 inches Hg (1019.0 mb)
Winds: from the ENE (70 degrees) at 7 MPH (6 knots; 3.1 m/s)
Visibility: 6 or more miles (10+ km)
Ceiling: ceiling and visibility are OK
Clouds: unknown
Weather: no significant weather observed at this time

METAR text: LFPG 180600Z 06010KT CAVOK 11/08 Q1019 NOSIG
Conditions at: LFPG (CHARLES DE GAULL, FR) observed 0600 UTC 18 April 2019
Temperature: 11.0°C (52°F)
Dewpoint: 8.0°C (46°F) [RH = 82%]
Pressure (altimeter): 30.09 inches Hg (1019.0 mb)
Winds: from the ENE (60 degrees) at 12 MPH (10 knots; 5.1 m/s)
Visibility: 6 or more miles (10+ km)
Ceiling: ceiling and visibility are OK
Clouds: unknown
Weather: no significant weather observed at this time

METAR text: LFPG 180530Z 06008KT CAVOK 11/08 Q1019 NOSIG
Conditions at: LFPG (CHARLES DE GAULL, FR) observed 0530 UTC 18 April 2019
Temperature: 11.0°C (52°F)
Dewpoint: 8.0°C (46°F) [RH = 82%]
Pressure (altimeter): 30.09 inches Hg (1019.0 mb)
Winds: from the ENE (60 degrees) at 9 MPH (8 knots; 4.1 m/s)
Visibility: 6 or more miles (10+ km)
Ceiling: ceiling and visibility are OK
Clouds: unknown
Weather: no significant weather observed at this time

METAR text: LFPG 180500Z 05006KT CAVOK 11/08 Q1019 NOSIG
Conditions at: LFPG (CHARLES DE GAULL, FR) observed 0500 UTC 18 April 2019
Temperature: 11.0°C (52°F)
Dewpoint: 8.0°C (46°F) [RH = 82%]
Pressure (altimeter): 30.09 inches Hg (1019.0 mb)
Winds: from the NE (50 degrees) at 7 MPH (6 knots; 3.1 m/s)
Visibility: 6 or more miles (10+ km)
Ceiling: ceiling and visibility are OK
Clouds: unknown
Weather: no significant weather observed at this time

METAR text: LFPG 180430Z 06007KT CAVOK 11/07 Q1019 NOSIG
Conditions at: LFPG (CHARLES DE GAULL, FR) observed 0430 UTC 18 April 2019
Temperature: 11.0°C (52°F)
Dewpoint: 7.0°C (45°F) [RH = 76%]
Pressure (altimeter): 30.09 inches Hg (1019.0 mb)
Winds: from the ENE (60 degrees) at 8 MPH (7 knots; 3.6 m/s)
Visibility: 6 or more miles (10+ km)
Ceiling: ceiling and visibility are OK
Clouds: unknown
Weather: no significant weather observed at this time

METAR text: LFPG 180400Z 05008KT CAVOK 10/07 Q1019 NOSIG
Conditions at: LFPG (CHARLES DE GAULL, FR) observed 0400 UTC 18 April 2019
Temperature: 10.0°C (50°F)
Dewpoint: 7.0°C (45°F) [RH = 82%]
Pressure (altimeter): 30.09 inches Hg (1019.0 mb)
Winds: from the NE (50 degrees) at 9 MPH (8 knots; 4.1 m/s)
Visibility: 6 or more miles (10+ km)
Ceiling: ceiling and visibility are OK
Clouds: unknown
Weather: no significant weather observed at this time

METAR text: LFPG 180330Z 04008KT CAVOK 10/07 Q1019 NOSIG
Conditions at: LFPG (CHARLES DE GAULL, FR) observed 0330 UTC 18 April 2019
Temperature: 10.0°C (50°F)
Dewpoint: 7.0°C (45°F) [RH = 82%]
Pressure (altimeter): 30.09 inches Hg (1019.0 mb)
Winds: from the NE (40 degrees) at 9 MPH (8 knots; 4.1 m/s)
Visibility: 6 or more miles (10+ km)
Ceiling: ceiling and visibility are OK
Clouds: unknown
Weather: no significant weather observed at this time

METAR text: LFPG 180300Z 06006KT CAVOK 11/07 Q1019 NOSIG
Conditions at: LFPG (CHARLES DE GAULL, FR) observed 0300 UTC 18 April 2019
Temperature: 11.0°C (52°F)
Dewpoint: 7.0°C (45°F) [RH = 76%]
Pressure (altimeter): 30.09 inches Hg (1019.0 mb)
Winds: from the ENE (60 degrees) at 7 MPH (6 knots; 3.1 m/s)
Visibility: 6 or more miles (10+ km)
Ceiling: ceiling and visibility are OK
Clouds: unknown
Weather: no significant weather observed at this time

METAR text: LFPG 180230Z 06007KT CAVOK 11/07 Q1019 NOSIG
Conditions at: LFPG (CHARLES DE GAULL, FR) observed 0230 UTC 18 April 2019
Temperature: 11.0°C (52°F)
Dewpoint: 7.0°C (45°F) [RH = 76%]
Pressure (altimeter): 30.09 inches Hg (1019.0 mb)
Winds: from the ENE (60 degrees) at 8 MPH (7 knots; 3.6 m/s)
Visibility: 6 or more miles (10+ km)
Ceiling: ceiling and visibility are OK
Clouds: unknown
Weather: no significant weather observed at this time

METAR text: LFPG 180200Z 07008KT CAVOK 11/08 Q1019 NOSIG
Conditions at: LFPG (CHARLES DE GAULL, FR) observed 0200 UTC 18 April 2019
Temperature: 11.0°C (52°F)
Dewpoint: 8.0°C (46°F) [RH = 82%]
Pressure (altimeter): 30.09 inches Hg (1019.0 mb)
Winds: from the ENE (70 degrees) at 9 MPH (8 knots; 4.1 m/s)
Visibility: 6 or more miles (10+ km)
Ceiling: ceiling and visibility are OK
Clouds: unknown
Weather: no significant weather observed at this time

METAR text: LFPG 180130Z 07008KT CAVOK 11/08 Q1019 NOSIG
Conditions at: LFPG (CHARLES DE GAULL, FR) observed 0130 UTC 18 April 2019
Temperature: 11.0°C (52°F)
Dewpoint: 8.0°C (46°F) [RH = 82%]
Pressure (altimeter): 30.09 inches Hg (1019.0 mb)
Winds: from the ENE (70 degrees) at 9 MPH (8 knots; 4.1 m/s)
Visibility: 6 or more miles (10+ km)
Ceiling: ceiling and visibility are OK
Clouds: unknown
Weather: no significant weather observed at this time

METAR text: LFPG 180100Z 07007KT CAVOK 11/07 Q1019 NOSIG
Conditions at: LFPG (CHARLES DE GAULL, FR) observed 0100 UTC 18 April 2019
Temperature: 11.0°C (52°F)
Dewpoint: 7.0°C (45°F) [RH = 76%]
Pressure (altimeter): 30.09 inches Hg (1019.0 mb)
Winds: from the ENE (70 degrees) at 8 MPH (7 knots; 3.6 m/s)
Visibility: 6 or more miles (10+ km)
Ceiling: ceiling and visibility are OK
Clouds: unknown
Weather: no significant weather observed at this time

METAR text: LFPG 180030Z 06008KT CAVOK 12/08 Q1019 NOSIG
Conditions at: LFPG (CHARLES DE GAULL, FR) observed 0030 UTC 18 April 2019
Temperature: 12.0°C (54°F)
Dewpoint: 8.0°C (46°F) [RH = 76%]
Pressure (altimeter): 30.09 inches Hg (1019.0 mb)
Winds: from the ENE (60 degrees) at 9 MPH (8 knots; 4.1 m/s)
Visibility: 6 or more miles (10+ km)
Ceiling: ceiling and visibility are OK
Clouds: unknown
Weather: no significant weather observed at this time

METAR text: LFPG 180000Z 07007KT CAVOK 12/08 Q1019 NOSIG
Conditions at: LFPG (CHARLES DE GAULL, FR) observed 0000 UTC 18 April 2019
Temperature: 12.0°C (54°F)
Dewpoint: 8.0°C (46°F) [RH = 76%]
Pressure (altimeter): 30.09 inches Hg (1019.0 mb)
Winds: from the ENE (70 degrees) at 8 MPH (7 knots; 3.6 m/s)
Visibility: 6 or more miles (10+ km)
Ceiling: ceiling and visibility are OK
Clouds: unknown
Weather: no significant weather observed at this time

METAR text: LFPG 172330Z 07008KT CAVOK 12/08 Q1019 NOSIG
Conditions at: LFPG (CHARLES DE GAULL, FR) observed 2330 UTC 17 April 2019
Temperature: 12.0°C (54°F)
Dewpoint: 8.0°C (46°F) [RH = 76%]
Pressure (altimeter): 30.09 inches Hg (1019.0 mb)
Winds: from the ENE (70 degrees) at 9 MPH (8 knots; 4.1 m/s)
Visibility: 6 or more miles (10+ km)
Ceiling: ceiling and visibility are OK
Clouds: unknown
Weather: no significant weather observed at this time

METAR text: LFPG 172300Z 07010KT CAVOK 12/08 Q1019 NOSIG
Conditions at: LFPG (CHARLES DE GAULL, FR) observed 2300 UTC 17 April 2019
Temperature: 12.0°C (54°F)
Dewpoint: 8.0°C (46°F) [RH = 76%]
Pressure (altimeter): 30.09 inches Hg (1019.0 mb)
Winds: from the ENE (70 degrees) at 12 MPH (10 knots; 5.1 m/s)
Visibility: 6 or more miles (10+ km)
Ceiling: ceiling and visibility are OK
Clouds: unknown
Weather: no significant weather observed at this time

METAR text: LFPG 172230Z 06012KT CAVOK 12/08 Q1019 NOSIG
Conditions at: LFPG (CHARLES DE GAULL, FR) observed 2230 UTC 17 April 2019
Temperature: 12.0°C (54°F)
Dewpoint: 8.0°C (46°F) [RH = 76%]
Pressure (altimeter): 30.09 inches Hg (1019.0 mb)
Winds: from the ENE (60 degrees) at 14 MPH (12 knots; 6.2 m/s)
Visibility: 6 or more miles (10+ km)
Ceiling: ceiling and visibility are OK
Clouds: unknown
Weather: no significant weather observed at this time

METAR text: LFPG 172200Z 06013KT CAVOK 13/08 Q1019 NOSIG
Conditions at: LFPG (CHARLES DE GAULL, FR) observed 2200 UTC 17 April 2019
Temperature: 13.0°C (55°F)
Dewpoint: 8.0°C (46°F) [RH = 72%]
Pressure (altimeter): 30.09 inches Hg (1019.0 mb)
Winds: from the ENE (60 degrees) at 15 MPH (13 knots; 6.7 m/s)
Visibility: 6 or more miles (10+ km)
Ceiling: ceiling and visibility are OK
Clouds: unknown
Weather: no significant weather observed at this time

METAR text: LFPG 172130Z 06010KT CAVOK 13/08 Q1019 NOSIG
Conditions at: LFPG (CHARLES DE GAULL, FR) observed 2130 UTC 17 April 2019
Temperature: 13.0°C (55°F)
Dewpoint: 8.0°C (46°F) [RH = 72%]
Pressure (altimeter): 30.09 inches Hg (1019.0 mb)
Winds: from the ENE (60 degrees) at 12 MPH (10 knots; 5.1 m/s)
Visibility: 6 or more miles (10+ km)
Ceiling: ceiling and visibility are OK
Clouds: unknown
Weather: no significant weather observed at this time

METAR text: LFPG 172100Z 06012KT CAVOK 13/07 Q1019 NOSIG
Conditions at: LFPG (CHARLES DE GAULL, FR) observed 2100 UTC 17 April 2019
Temperature: 13.0°C (55°F)
Dewpoint: 7.0°C (45°F) [RH = 67%]
Pressure (altimeter): 30.09 inches Hg (1019.0 mb)
Winds: from the ENE (60 degrees) at 14 MPH (12 knots; 6.2 m/s)
Visibility: 6 or more miles (10+ km)
Ceiling: ceiling and visibility are OK
Clouds: unknown
Weather: no significant weather observed at this time

METAR text: LFPG 172030Z 06009KT CAVOK 13/05 Q1019 NOSIG
Conditions at: LFPG (CHARLES DE GAULL, FR) observed 2030 UTC 17 April 2019
Temperature: 13.0°C (55°F)
Dewpoint: 5.0°C (41°F) [RH = 58%]
Pressure (altimeter): 30.09 inches Hg (1019.0 mb)
Winds: from the ENE (60 degrees) at 10 MPH (9 knots; 4.6 m/s)
Visibility: 6 or more miles (10+ km)
Ceiling: ceiling and visibility are OK
Clouds: unknown
Weather: no significant weather observed at this time

METAR text: LFPG 172000Z 08009KT CAVOK 15/05 Q1019 NOSIG
Conditions at: LFPG (CHARLES DE GAULL, FR) observed 2000 UTC 17 April 2019
Temperature: 15.0°C (59°F)
Dewpoint: 5.0°C (41°F) [RH = 51%]
Pressure (altimeter): 30.09 inches Hg (1019.0 mb)
Winds: from the E (80 degrees) at 10 MPH (9 knots; 4.6 m/s)
Visibility: 6 or more miles (10+ km)
Ceiling: ceiling and visibility are OK
Clouds: unknown
Weather: no significant weather observed at this time

METAR text: LFPG 171930Z 09007KT CAVOK 15/05 Q1019 NOSIG
Conditions at: LFPG (CHARLES DE GAULL, FR) observed 1930 UTC 17 April 2019
Temperature: 15.0°C (59°F)
Dewpoint: 5.0°C (41°F) [RH = 51%]
Pressure (altimeter): 30.09 inches Hg (1019.0 mb)
Winds: from the E (90 degrees) at 8 MPH (7 knots; 3.6 m/s)
Visibility: 6 or more miles (10+ km)
Ceiling: ceiling and visibility are OK
Clouds: unknown
Weather: no significant weather observed at this time

METAR text: LFPG 171900Z 10008KT CAVOK 16/05 Q1019 NOSIG
Conditions at: LFPG (CHARLES DE GAULL, FR) observed 1900 UTC 17 April 2019
Temperature: 16.0°C (61°F)
Dewpoint: 5.0°C (41°F) [RH = 48%]
Pressure (altimeter): 30.09 inches Hg (1019.0 mb)
Winds: from the E (100 degrees) at 9 MPH (8 knots; 4.1 m/s)
Visibility: 6 or more miles (10+ km)
Ceiling: ceiling and visibility are OK
Clouds: unknown
Weather: no significant weather observed at this time

METAR text: LFPG 171830Z 10009KT CAVOK 17/05 Q1018 NOSIG
Conditions at: LFPG (CHARLES DE GAULL, FR) observed 1830 UTC 17 April 2019
Temperature: 17.0°C (63°F)
Dewpoint: 5.0°C (41°F) [RH = 45%]
Pressure (altimeter): 30.06 inches Hg (1018.0 mb)
Winds: from the E (100 degrees) at 10 MPH (9 knots; 4.6 m/s)
Visibility: 6 or more miles (10+ km)
Ceiling: ceiling and visibility are OK
Clouds: unknown
Weather: no significant weather observed at this time

METAR text: LFPG 171800Z 10009KT CAVOK 17/05 Q1018 NOSIG
Conditions at: LFPG (CHARLES DE GAULL, FR) observed 1800 UTC 17 April 2019
Temperature: 17.0°C (63°F)
Dewpoint: 5.0°C (41°F) [RH = 45%]
Pressure (altimeter): 30.06 inches Hg (1018.0 mb)
Winds: from the E (100 degrees) at 10 MPH (9 knots; 4.6 m/s)
Visibility: 6 or more miles (10+ km)
Ceiling: ceiling and visibility are OK
Clouds: unknown
Weather: no significant weather observed at this time

METAR text: LFPG 171730Z 10010KT CAVOK 17/05 Q1018 NOSIG
Conditions at: LFPG (CHARLES DE GAULL, FR) observed 1730 UTC 17 April 2019
Temperature: 17.0°C (63°F)
Dewpoint: 5.0°C (41°F) [RH = 45%]
Pressure (altimeter): 30.06 inches Hg (1018.0 mb)
Winds: from the E (100 degrees) at 12 MPH (10 knots; 5.1 m/s)
Visibility: 6 or more miles (10+ km)
Ceiling: ceiling and visibility are OK
Clouds: unknown
Weather: no significant weather observed at this time

METAR text: LFPG 171700Z 09011KT 9999 FEW046 SCT220 BKN260 18/05 Q1018 NOSIG
Conditions at: LFPG (CHARLES DE GAULL, FR) observed 1700 UTC 17 April 2019
Temperature: 18.0°C (64°F)
Dewpoint: 5.0°C (41°F) [RH = 42%]
Pressure (altimeter): 30.06 inches Hg (1018.0 mb)
Winds: from the E (90 degrees) at 13 MPH (11 knots; 5.7 m/s)
Visibility: 6 or more miles (10+ km)
Ceiling: 26000 feet AGL
Clouds: few clouds at 4600 feet AGL
scattered clouds at 22000 feet AGL
broken clouds at 26000 feet AGL
Weather: no significant weather observed at this time

METAR text: LFPG 171630Z 09010KT 9999 FEW046 SCT220 BKN260 18/05 Q1018 NOSIG
Conditions at: LFPG (CHARLES DE GAULL, FR) observed 1630 UTC 17 April 2019
Temperature: 18.0°C (64°F)
Dewpoint: 5.0°C (41°F) [RH = 42%]
Pressure (altimeter): 30.06 inches Hg (1018.0 mb)
Winds: from the E (90 degrees) at 12 MPH (10 knots; 5.1 m/s)
Visibility: 6 or more miles (10+ km)
Ceiling: 26000 feet AGL
Clouds: few clouds at 4600 feet AGL
scattered clouds at 22000 feet AGL
broken clouds at 26000 feet AGL
Weather: no significant weather observed at this time

METAR text: LFPG 171600Z 09010KT 070V130 9999 FEW046 SCT220 18/05 Q1018 NOSIG
Conditions at: LFPG (CHARLES DE GAULL, FR) observed 1600 UTC 17 April 2019
Temperature: 18.0°C (64°F)
Dewpoint: 5.0°C (41°F) [RH = 42%]
Pressure (altimeter): 30.06 inches Hg (1018.0 mb)
Winds: from the E (90 degrees) at 12 MPH (10 knots; 5.1 m/s)
Visibility: 6 or more miles (10+ km)
Ceiling: at least 12,000 feet AGL
Clouds: few clouds at 4600 feet AGL
scattered clouds at 22000 feet AGL
Weather: no significant weather observed at this time

METAR text: LFPG 171530Z 11012KT 070V130 9999 FEW046 17/05 Q1018 NOSIG
Conditions at: LFPG (CHARLES DE GAULL, FR) observed 1530 UTC 17 April 2019
Temperature: 17.0°C (63°F)
Dewpoint: 5.0°C (41°F) [RH = 45%]
Pressure (altimeter): 30.06 inches Hg (1018.0 mb)
Winds: from the ESE (110 degrees) at 14 MPH (12 knots; 6.2 m/s)
Visibility: 6 or more miles (10+ km)
Ceiling: at least 12,000 feet AGL
Clouds: few clouds at 4600 feet AGL
Weather: no significant weather observed at this time

METAR text: LFPG 171500Z 08011KT 040V110 9999 FEW046 BKN260 18/06 Q1019 NOSIG
Conditions at: LFPG (CHARLES DE GAULL, FR) observed 1500 UTC 17 April 2019
Temperature: 18.0°C (64°F)
Dewpoint: 6.0°C (43°F) [RH = 45%]
Pressure (altimeter): 30.09 inches Hg (1019.0 mb)
Winds: from the E (80 degrees) at 13 MPH (11 knots; 5.7 m/s)
Visibility: 6 or more miles (10+ km)
Ceiling: 26000 feet AGL
Clouds: few clouds at 4600 feet AGL
broken clouds at 26000 feet AGL
Weather: no significant weather observed at this time

METAR text: LFPG 171430Z 09009KT 030V130 9999 FEW043 BKN260 18/05 Q1019 NOSIG
Conditions at: LFPG (CHARLES DE GAULL, FR) observed 1430 UTC 17 April 2019
Temperature: 18.0°C (64°F)
Dewpoint: 5.0°C (41°F) [RH = 42%]
Pressure (altimeter): 30.09 inches Hg (1019.0 mb)
Winds: from the E (90 degrees) at 10 MPH (9 knots; 4.6 m/s)
Visibility: 6 or more miles (10+ km)
Ceiling: 26000 feet AGL
Clouds: few clouds at 4300 feet AGL
broken clouds at 26000 feet AGL
Weather: no significant weather observed at this time

METAR text: LFPG 171400Z 09009KT 050V120 9999 FEW043 BKN260 17/05 Q1019 NOSIG
Conditions at: LFPG (CHARLES DE GAULL, FR) observed 1400 UTC 17 April 2019
Temperature: 17.0°C (63°F)
Dewpoint: 5.0°C (41°F) [RH = 45%]
Pressure (altimeter): 30.09 inches Hg (1019.0 mb)
Winds: from the E (90 degrees) at 10 MPH (9 knots; 4.6 m/s)
Visibility: 6 or more miles (10+ km)
Ceiling: 26000 feet AGL
Clouds: few clouds at 4300 feet AGL
broken clouds at 26000 feet AGL
Weather: no significant weather observed at this time

METAR text: LFPG 171330Z 07008KT 040V120 9999 FEW036 SCT260 17/06 Q1019 NOSIG
Conditions at: LFPG (CHARLES DE GAULL, FR) observed 1330 UTC 17 April 2019
Temperature: 17.0°C (63°F)
Dewpoint: 6.0°C (43°F) [RH = 48%]
Pressure (altimeter): 30.09 inches Hg (1019.0 mb)
Winds: from the ENE (70 degrees) at 9 MPH (8 knots; 4.1 m/s)
Visibility: 6 or more miles (10+ km)
Ceiling: at least 12,000 feet AGL
Clouds: few clouds at 3600 feet AGL
scattered clouds at 26000 feet AGL
Weather: no significant weather observed at this time

METAR text: LFPG 171300Z 07006KT 010V110 9999 FEW036 SCT260 16/06 Q1020 NOSIG
Conditions at: LFPG (CHARLES DE GAULL, FR) observed 1300 UTC 17 April 2019
Temperature: 16.0°C (61°F)
Dewpoint: 6.0°C (43°F) [RH = 51%]
Pressure (altimeter): 30.12 inches Hg (1020.0 mb)
Winds: from the ENE (70 degrees) at 7 MPH (6 knots; 3.1 m/s)
Visibility: 6 or more miles (10+ km)
Ceiling: at least 12,000 feet AGL
Clouds: few clouds at 3600 feet AGL
scattered clouds at 26000 feet AGL
Weather: no significant weather observed at this time

METAR text: LFPG 171230Z 07006KT 010V130 9999 SCT035 17/06 Q1020 NOSIG
Conditions at: LFPG (CHARLES DE GAULL, FR) observed 1230 UTC 17 April 2019
Temperature: 17.0°C (63°F)
Dewpoint: 6.0°C (43°F) [RH = 48%]
Pressure (altimeter): 30.12 inches Hg (1020.0 mb)
Winds: from the ENE (70 degrees) at 7 MPH (6 knots; 3.1 m/s)
Visibility: 6 or more miles (10+ km)
Ceiling: at least 12,000 feet AGL
Clouds: scattered clouds at 3500 feet AGL
Weather: no significant weather observed at this time

METAR text: LFPG 171200Z 05006KT 010V120 9999 SCT032 17/06 Q1020 NOSIG
Conditions at: LFPG (CHARLES DE GAULL, FR) observed 1200 UTC 17 April 2019
Temperature: 17.0°C (63°F)
Dewpoint: 6.0°C (43°F) [RH = 48%]
Pressure (altimeter): 30.12 inches Hg (1020.0 mb)
Winds: from the NE (50 degrees) at 7 MPH (6 knots; 3.1 m/s)
Visibility: 6 or more miles (10+ km)
Ceiling: at least 12,000 feet AGL
Clouds: scattered clouds at 3200 feet AGL
Weather: no significant weather observed at this time

METAR text: LFPG 171130Z 09004KT 360V130 9999 BKN026 16/07 Q1020 NOSIG
Conditions at: LFPG (CHARLES DE GAULL, FR) observed 1130 UTC 17 April 2019
Temperature: 16.0°C (61°F)
Dewpoint: 7.0°C (45°F) [RH = 55%]
Pressure (altimeter): 30.12 inches Hg (1020.0 mb)
Winds: from the E (90 degrees) at 5 MPH (4 knots; 2.1 m/s)
Visibility: 6 or more miles (10+ km)
Ceiling: 2600 feet AGL
Clouds: broken clouds at 2600 feet AGL
Weather: no significant weather observed at this time

METAR text: LFPG 171100Z 07005KT 360V120 9999 BKN026 16/08 Q1020 NOSIG
Conditions at: LFPG (CHARLES DE GAULL, FR) observed 1100 UTC 17 April 2019
Temperature: 16.0°C (61°F)
Dewpoint: 8.0°C (46°F) [RH = 59%]
Pressure (altimeter): 30.12 inches Hg (1020.0 mb)
Winds: from the ENE (70 degrees) at 6 MPH (5 knots; 2.6 m/s)
Visibility: 6 or more miles (10+ km)
Ceiling: 2600 feet AGL
Clouds: broken clouds at 2600 feet AGL
Weather: no significant weather observed at this time

METAR text: LFPG 171030Z VRB03KT 9999 BKN022 14/07 Q1020 NOSIG
Conditions at: LFPG (CHARLES DE GAULL, FR) observed 1030 UTC 17 April 2019
Temperature: 14.0°C (57°F)
Dewpoint: 7.0°C (45°F) [RH = 63%]
Pressure (altimeter): 30.12 inches Hg (1020.0 mb)
Winds: variable direction winds at 3 MPH (3 knots; 1.5 m/s)
Visibility: 6 or more miles (10+ km)
Ceiling: 2200 feet AGL
Clouds: broken clouds at 2200 feet AGL
Weather: no significant weather observed at this time

METAR text: LFPG 171000Z 13005KT 100V160 9999 BKN022 15/08 Q1020 NOSIG
Conditions at: LFPG (CHARLES DE GAULL, FR) observed 1000 UTC 17 April 2019
Temperature: 15.0°C (59°F)
Dewpoint: 8.0°C (46°F) [RH = 63%]
Pressure (altimeter): 30.12 inches Hg (1020.0 mb)
Winds: from the SE (130 degrees) at 6 MPH (5 knots; 2.6 m/s)
Visibility: 6 or more miles (10+ km)
Ceiling: 2200 feet AGL
Clouds: broken clouds at 2200 feet AGL
Weather: no significant weather observed at this time

METAR text: LFPG 170930Z 09006KT 060V130 9999 SCT014 SCT260 14/08 Q1020 NOSIG
Conditions at: LFPG (CHARLES DE GAULL, FR) observed 0930 UTC 17 April 2019
Temperature: 14.0°C (57°F)
Dewpoint: 8.0°C (46°F) [RH = 67%]
Pressure (altimeter): 30.12 inches Hg (1020.0 mb)
Winds: from the E (90 degrees) at 7 MPH (6 knots; 3.1 m/s)
Visibility: 6 or more miles (10+ km)
Ceiling: at least 12,000 feet AGL
Clouds: scattered clouds at 1400 feet AGL
scattered clouds at 26000 feet AGL
Weather: no significant weather observed at this time

METAR text: LFPG 170900Z 11005KT 040V180 9999 FEW012 SCT260 13/08 Q1020 NOSIG
Conditions at: LFPG (CHARLES DE GAULL, FR) observed 0900 UTC 17 April 2019
Temperature: 13.0°C (55°F)
Dewpoint: 8.0°C (46°F) [RH = 72%]
Pressure (altimeter): 30.12 inches Hg (1020.0 mb)
Winds: from the ESE (110 degrees) at 6 MPH (5 knots; 2.6 m/s)
Visibility: 6 or more miles (10+ km)
Ceiling: at least 12,000 feet AGL
Clouds: few clouds at 1200 feet AGL
scattered clouds at 26000 feet AGL
Weather: no significant weather observed at this time

METAR text: LFPG 170830Z 10004KT 020V160 9000 FEW020 SCT023 13/08 Q1020 NOSIG
Conditions at: LFPG (CHARLES DE GAULL, FR) observed 0830 UTC 17 April 2019
Temperature: 13.0°C (55°F)
Dewpoint: 8.0°C (46°F) [RH = 72%]
Pressure (altimeter): 30.12 inches Hg (1020.0 mb)
Winds: from the E (100 degrees) at 5 MPH (4 knots; 2.1 m/s)
Visibility: 6 miles ( 9 km)
Ceiling: at least 12,000 feet AGL
Clouds: few clouds at 2000 feet AGL
scattered clouds at 2300 feet AGL
Weather: no significant weather observed at this time

METAR text: LFPG 170800Z 08004KT 040V130 7000 FEW023 SCT260 12/08 Q1020 BECMG 8000 NSW
Conditions at: LFPG (CHARLES DE GAULL, FR) observed 0800 UTC 17 April 2019
Temperature: 12.0°C (54°F)
Dewpoint: 8.0°C (46°F) [RH = 76%]
Pressure (altimeter): 30.12 inches Hg (1020.0 mb)
Winds: from the E (80 degrees) at 5 MPH (4 knots; 2.1 m/s)
Visibility: 4 miles ( 7 km)
Ceiling: at least 12,000 feet AGL
Clouds: few clouds at 2300 feet AGL
scattered clouds at 26000 feet AGL
Weather: no significant weather observed at this time

METAR text: LFPG 170730Z 14004KT 5000 0500S R27L/P2000 R09R/P2000 R26R/1700U R08L/0800U R26L/1700U R08R/0550U R27R/P2000 R09L/P2000 BCFG BR FEW001 10/08 Q1020 BECMG 8000 NSW
Conditions at: LFPG (CHARLES DE GAULL, FR) observed 0730 UTC 17 April 2019
Temperature: 10.0°C (50°F)
Dewpoint: 8.0°C (46°F) [RH = 87%]
Pressure (altimeter): 30.12 inches Hg (1020.0 mb)
Winds: from the SE (140 degrees) at 5 MPH (4 knots; 2.1 m/s)
Visibility: 3 miles ( 5 km)
Ceiling: at least 12,000 feet AGL
Clouds: few clouds at 100 feet AGL
Weather: BCFG BR  (patches of fog, mist)

METAR text: LFPG 170700Z 13003KT 3000 0300S R27L/P2000 R09R/P2000 R26R/0200N R08L/1000U R26L/0325N R08R/0225N R27R/1300U R09L/P2000 BCFG BR SCT001 SCT026 10/07 Q1020 TEMPO 0400 BCFG BKN001
Conditions at: LFPG (CHARLES DE GAULL, FR) observed 0700 UTC 17 April 2019
Temperature: 10.0°C (50°F)
Dewpoint: 7.0°C (45°F) [RH = 82%]
Pressure (altimeter): 30.12 inches Hg (1020.0 mb)
Winds: from the SE (130 degrees) at 3 MPH (3 knots; 1.5 m/s)
Visibility: 1.86 miles (2.99 km)
Ceiling: at least 12,000 feet AGL
Clouds: scattered clouds at 100 feet AGL
scattered clouds at 2600 feet AGL
Weather: BCFG BR  (patches of fog, mist)

METAR text: LFPG 170630Z 10003KT 080V140 3000 0300SE R27L/0900N R09R/P2000 R26R/0225N R08L/0500D R26L/0275N R08R/0400D R27R/0700D R09L/P2000 BCFG BR FEW001 BKN026 09/08 Q1020 TEMPO 0400 BCFG BKN001
Conditions at: LFPG (CHARLES DE GAULL, FR) observed 0630 UTC 17 April 2019
Temperature: 9.0°C (48°F)
Dewpoint: 8.0°C (46°F) [RH = 93%]
Pressure (altimeter): 30.12 inches Hg (1020.0 mb)
Winds: from the E (100 degrees) at 3 MPH (3 knots; 1.5 m/s)
Visibility: 1.86 miles (2.99 km)
Ceiling: 2600 feet AGL
Clouds: few clouds at 100 feet AGL
broken clouds at 2600 feet AGL
Weather: BCFG BR  (patches of fog, mist)

Forecast for: LFPG (CHARLES DE GAULL, FR)
Text: TAF LFPG 181700Z 1818/1924 05010KT CAVOK TX23/1915Z TN11/1905Z
Forecast period: 1800 UTC 18 April 2019 to 0000 UTC 20 April 2019
Forecast type: FROM: standard forecast or significant change
Winds: from the NE (50 degrees) at 12 MPH (10 knots; 5.1 m/s)
Visibility: 6 or more miles 10+ km)
Ceiling: unknown
Clouds: missing
Weather: no significant weather forecast for this period
Text: PROB30
Forecast period: 1800 UTC 19 April 2019 to 0000 UTC 20 April 2019
Forecast type: TEMPORARY: The following changes expected for less than half the time period
Visibility: missing
Ceiling: at least 12,000 feet AGL
Clouds: scattered clouds at 5000 feet AGL
Weather: no significant weather forecast for this period